Wheeling, Indiana
Current Conditions -  °F | °C
As of 4:53 AM on Friday 28 Nov 2014 (Local Time) from KMIE Reporting Station
Broken Clouds Broken Clouds  
Wind Chill: 15°   Ceiling: 1700
Heat Index: 23°   Visibility: 10mi
Dew Point: 18°   Wind: 7mph
Humidity: 81%   Direction: 270°W
Pressure: 30.37"   Gusts: NA
Location:  40.3233°N, 85.5202°W
Report Text: KMIE 280953Z AUTO 27006KT 10SM BKN017 BKN100 M05/M08 A3037 RMK AO2 SLP292 T10501078
Loading
Personal Weather Stations






























Interactive Weather Map New forecast layout! Learn more

10-Day Weather Forecast

Advertisements
Track Severe Weather on mobile